Current Conditions for Select Cities

 

KSAF - Santa Fe, NM, USA
Distance from station: SW 9mi, 15km
Updated: Wed, 28-Feb-2024 7:53am MST
Clear
Clear
 Wind from N
Wind: N 13 mph , 20 km/h
Temperature: 30°F , -1°C
Wind Chill: 20°F , -7°C
Dew Point: 7°F , -14°C
Humidity: 37%
Barometer: 30.20 inHg , 1022.7 hPa
Clouds: Clear
Visibility: 10 miles , 16 km
2024/02/28 14:53 KSAF 281453Z 35011KT 10SM CLR M01/M14 A3020 RMK AO2 SLP209 T10111144 51028
KRDU - Raleigh/Durham, North Carolina, USA
Distance from station: WNW 4mi, 6km
Updated: Wed, 28-Feb-2024 7:51am MST
Overcast
Overcast
 Wind from SSW
Wind: SSW 22 mph , 35 km/h, Gust: 30 mph , 48 km/h
Temperature: 64°F , 18°C
Dew Point: 50°F , 10°C
Humidity: 60%
Barometer: 29.87 inHg , 1011.5 hPa
Clouds: Overcast
Visibility: 10 miles , 16 km
Cloud details: Few Clouds 3000 ft
Mostly cloudy 16000 ft
Overcast 20000 ft
2024/02/28 14:51 KRDU 281451Z 21019G26KT 10SM FEW030 BKN160 OVC200 18/10 A2987 RMK AO2 PK WND 20030/1426 SLP113 T01780100 58001
 
KMDW - Chicago, Illinois, USA
Distance from station: SW 10mi, 16km
Updated: Wed, 28-Feb-2024 7:53am MST
Light snow, Overcast
Light snow, Overcast
 Wind from NW
Wind: NW 29 mph , 46 km/h, Gust: 37 mph , 59 km/h
Temperature: 25°F , -4°C
Wind Chill: 8°F , -13°C
Dew Point: 12°F , -11°C
Humidity: 59%
Barometer: 29.83 inHg , 1010.2 hPa
Summary: Light Snow
Clouds: Overcast
Visibility: 10 miles , 16 km
Cloud details: Overcast 2400 ft
2024/02/28 14:53 KMDW 281453Z 32025G32KT 10SM -SN OVC024 M04/M11 A2983 RMK AO2 PK WND 32033/1354 SNB05 PRESRR SLP109 P0000 60000 T10441111 51065
KMKG - Muskegon, Michigan, USA
Distance from station: SE 0mi, 1km
Updated: Wed, 28-Feb-2024 8:41am MST
Snow, Overcast
Snow, Overcast
 Wind from WNW
Wind: WNW 20 mph , 31 km/h, Gust: 35 mph , 56 km/h
Temperature: 25°F , -4°C
Wind Chill: 11°F , -12°C
Dew Point: 18°F , -8°C
Humidity: 74%
Barometer: 29.71 inHg , 1006.1 hPa
Summary: Snow
Clouds: Overcast
Visibility: 1/2 mile , 0.8 km
Cloud details: Overcast 1700 ft
2024/02/28 15:41 KMKG 281541Z 30017G30KT 1/2SM R32/3000VP6000FT SN VV017 M04/M08 A2971 RMK AO2 PK WND 31032/1516 SNB1457 T10441083 PNO
 
KDTW - Detroit/Wayne, Michigan, USA
Distance from station: NE 2mi, 3km
Updated: Wed, 28-Feb-2024 7:53am MST
Overcast
Overcast
 Wind from WNW
Wind: WNW 22 mph , 35 km/h, Gust: 38 mph , 61 km/h
Temperature: 37°F , 3°C
Wind Chill: 26°F , -3°C
Dew Point: 32°F , 0°C
Humidity: 81%
Barometer: 29.43 inHg , 996.6 hPa
Clouds: Overcast
Visibility: 10 miles , 16 km
Cloud details: Mostly cloudy 1500 ft
Mostly cloudy 2000 ft
Overcast 3000 ft
2024/02/28 14:53 KDTW 281453Z 29019G33KT 10SM BKN015 BKN020 OVC030 03/00 A2943 RMK AO2 PK WND 29035/1442 PRESRR SLP968 T00330000 53067
CYXU - London Airport, Ontario, Canada
Distance from station: NE 5mi, 9km
Updated: Wed, 28-Feb-2024 8:36am MST
Overcast
Overcast
 Wind from NW
Wind: NW 18 mph , 30 km/h, Gust: 35 mph , 56 km/h
Temperature: 39°F , 4°C
Wind Chill: 30°F , -1°C
Dew Point: 36°F , 2°C
Humidity: 87%
Barometer: 29.32 inHg , 992.9 hPa
Clouds: Overcast
Visibility: 8 miles , 13 km
Cloud details: Overcast 800 ft
2024/02/28 15:36 CYXU 281536Z 31016G30KT 8SM OVC008 04/02 A2932 RMK ST8 PRESRR SLP935
 
KSDL - Scottsdale, Arizona, USA
Distance from station: SSE 2mi, 4km
Updated: Wed, 28-Feb-2024 7:53am MST
Clear
Clear
 Wind from NNE
Wind: NNE 5 mph , 7 km/h
Temperature: 54°F , 12°C
Dew Point: 43°F , 6°C
Humidity: 67%
Barometer: 30.01 inHg , 1016.3 hPa
Clouds: Clear
Visibility: 10 miles , 16 km
2024/02/28 14:53 KSDL 281453Z 02004KT 10SM CLR 12/06 A3001 RMK AO2 SLP150 T01220061 51013
EGPO - Stornoway, United Kingdom
Distance from station: NE 0mi, 0km
Updated: Wed, 28-Feb-2024 8:20am MST
Nearby showers, Mostly cloudy
Nearby showers, Mostly cloudy
 Wind from SSW
Wind: SSW 20 mph , 31 km/h
Temperature: 50°F , 10°C
Wind Chill: 44°F , 7°C
Dew Point: 48°F , 9°C
Humidity: 94%
Barometer: 29.32 inHg , 993 hPa
Summary: Nearby Showers
Clouds: Mostly cloudy
Visibility: 6 miles , 10 km
Cloud details: Partly cloudy 1500 ft
Mostly cloudy 2000 ft
2024/02/28 15:20 EGPO 281520Z 20017KT 9999 VCSH SCT015 BKN020 10/09 Q0993